sensor_id;sensor_type;location;lat;lon;timestamp;temperature;humidity
37594;DHT22;23441;50.856;6.076;2023-01-30T00:00:57;3.00;99.90
37594;DHT22;23441;50.856;6.076;2023-01-30T00:03:23;3.10;99.90
37594;DHT22;23441;50.856;6.076;2023-01-30T00:05:50;3.10;99.90
37594;DHT22;23441;50.856;6.076;2023-01-30T00:08:16;3.10;99.90
37594;DHT22;23441;50.856;6.076;2023-01-30T00:10:42;3.20;99.90
37594;DHT22;23441;50.856;6.076;2023-01-30T00:13:08;3.10;99.90
37594;DHT22;23441;50.856;6.076;2023-01-30T00:15:34;3.20;99.90
37594;DHT22;23441;50.856;6.076;2023-01-30T00:18:00;3.10;99.90
37594;DHT22;23441;50.856;6.076;2023-01-30T00:20:25;3.10;99.90
37594;DHT22;23441;50.856;6.076;2023-01-30T00:22:51;3.10;99.90
37594;DHT22;23441;50.856;6.076;2023-01-30T00:25:17;3.10;99.90
37594;DHT22;23441;50.856;6.076;2023-01-30T00:27:42;3.10;99.90
37594;DHT22;23441;50.856;6.076;2023-01-30T00:30:08;3.00;99.90
37594;DHT22;23441;50.856;6.076;2023-01-30T00:32:34;3.10;99.90
37594;DHT22;23441;50.856;6.076;2023-01-30T00:35:00;3.00;99.90
37594;DHT22;23441;50.856;6.076;2023-01-30T00:37:25;3.00;99.90
37594;DHT22;23441;50.856;6.076;2023-01-30T00:39:51;2.90;99.90
37594;DHT22;23441;50.856;6.076;2023-01-30T00:42:17;2.90;99.90
37594;DHT22;23441;50.856;6.076;2023-01-30T00:45:03;3.00;99.90
37594;DHT22;23441;50.856;6.076;2023-01-30T00:47:50;3.00;99.90
37594;DHT22;23441;50.856;6.076;2023-01-30T00:50:15;3.00;99.90
37594;DHT22;23441;50.856;6.076;2023-01-30T00:52:41;2.90;99.90
37594;DHT22;23441;50.856;6.076;2023-01-30T00:55:07;2.90;99.90
37594;DHT22;23441;50.856;6.076;2023-01-30T00:57:33;2.90;99.90
37594;DHT22;23441;50.856;6.076;2023-01-30T00:59:58;2.90;99.90
37594;DHT22;23441;50.856;6.076;2023-01-30T01:02:24;2.90;99.90
37594;DHT22;23441;50.856;6.076;2023-01-30T01:04:49;2.90;99.90
37594;DHT22;23441;50.856;6.076;2023-01-30T01:07:15;2.90;99.90
37594;DHT22;23441;50.856;6.076;2023-01-30T01:09:41;3.00;99.90
37594;DHT22;23441;50.856;6.076;2023-01-30T01:12:07;2.90;99.90
37594;DHT22;23441;50.856;6.076;2023-01-30T01:14:32;2.90;99.90
37594;DHT22;23441;50.856;6.076;2023-01-30T01:16:58;2.90;99.90
37594;DHT22;23441;50.856;6.076;2023-01-30T01:19:24;2.90;99.90
37594;DHT22;23441;50.856;6.076;2023-01-30T01:21:50;2.90;99.90
37594;DHT22;23441;50.856;6.076;2023-01-30T01:24:16;3.00;99.90
37594;DHT22;23441;50.856;6.076;2023-01-30T01:26:42;3.00;99.90
37594;DHT22;23441;50.856;6.076;2023-01-30T01:29:15;3.00;99.90
37594;DHT22;23441;50.856;6.076;2023-01-30T01:31:41;3.10;99.90
37594;DHT22;23441;50.856;6.076;2023-01-30T01:34:07;3.10;99.90
37594;DHT22;23441;50.856;6.076;2023-01-30T01:36:33;3.10;99.90
37594;DHT22;23441;50.856;6.076;2023-01-30T01:38:59;3.10;99.90
37594;DHT22;23441;50.856;6.076;2023-01-30T01:41:24;3.10;99.90
37594;DHT22;23441;50.856;6.076;2023-01-30T01:44:03;3.10;99.90
37594;DHT22;23441;50.856;6.076;2023-01-30T01:46:55;3.20;99.90
37594;DHT22;23441;50.856;6.076;2023-01-30T01:52:07;3.30;99.90
37594;DHT22;23441;50.856;6.076;2023-01-30T01:57:19;3.40;99.90
37594;DHT22;23441;50.856;6.076;2023-01-30T01:59:50;3.50;99.90
37594;DHT22;23441;50.856;6.076;2023-01-30T02:02:18;3.50;99.90
37594;DHT22;23441;50.856;6.076;2023-01-30T02:04:47;3.60;99.90
37594;DHT22;23441;50.856;6.076;2023-01-30T02:07:30;3.60;99.90
37594;DHT22;23441;50.856;6.076;2023-01-30T02:09:57;3.70;99.90
37594;DHT22;23441;50.856;6.076;2023-01-30T02:12:23;3.70;99.90
37594;DHT22;23441;50.856;6.076;2023-01-30T02:14:50;3.70;99.90
37594;DHT22;23441;50.856;6.076;2023-01-30T02:17:18;3.60;99.90
37594;DHT22;23441;50.856;6.076;2023-01-30T02:20:02;3.60;99.90
37594;DHT22;23441;50.856;6.076;2023-01-30T02:23:02;3.50;99.90
37594;DHT22;23441;50.856;6.076;2023-01-30T02:31:30;3.50;99.90
37594;DHT22;23441;50.856;6.076;2023-01-30T02:37:01;3.40;99.90
37594;DHT22;23441;50.856;6.076;2023-01-30T02:42:41;3.40;99.90
37594;DHT22;23441;50.856;6.076;2023-01-30T02:48:09;3.50;99.90
37594;DHT22;23441;50.856;6.076;2023-01-30T02:50:42;3.60;99.90
37594;DHT22;23441;50.856;6.076;2023-01-30T02:53:09;3.60;99.90
37594;DHT22;23441;50.856;6.076;2023-01-30T02:55:34;3.60;99.90
37594;DHT22;23441;50.856;6.076;2023-01-30T02:58:02;3.60;99.90
37594;DHT22;23441;50.856;6.076;2023-01-30T03:08:57;3.60;99.90
37594;DHT22;23441;50.856;6.076;2023-01-30T03:12:00;3.60;99.90
37594;DHT22;23441;50.856;6.076;2023-01-30T03:14:25;3.50;99.90
37594;DHT22;23441;50.856;6.076;2023-01-30T03:16:54;3.50;99.90
37594;DHT22;23441;50.856;6.076;2023-01-30T03:19:20;3.50;99.90
37594;DHT22;23441;50.856;6.076;2023-01-30T03:21:47;3.40;99.90
37594;DHT22;23441;50.856;6.076;2023-01-30T03:24:13;3.40;99.90
37594;DHT22;23441;50.856;6.076;2023-01-30T03:26:53;3.40;99.90
37594;DHT22;23441;50.856;6.076;2023-01-30T03:29:19;3.40;99.90
37594;DHT22;23441;50.856;6.076;2023-01-30T03:31:45;3.50;99.90
37594;DHT22;23441;50.856;6.076;2023-01-30T03:34:11;3.50;99.90
37594;DHT22;23441;50.856;6.076;2023-01-30T03:36:36;3.50;99.90
37594;DHT22;23441;50.856;6.076;2023-01-30T03:39:02;3.50;99.90
37594;DHT22;23441;50.856;6.076;2023-01-30T03:41:28;3.50;99.90
37594;DHT22;23441;50.856;6.076;2023-01-30T03:43:54;3.60;99.90
37594;DHT22;23441;50.856;6.076;2023-01-30T03:46:19;3.60;99.90
37594;DHT22;23441;50.856;6.076;2023-01-30T03:48:45;3.60;99.90
37594;DHT22;23441;50.856;6.076;2023-01-30T03:51:11;3.70;99.90
37594;DHT22;23441;50.856;6.076;2023-01-30T03:53:36;3.70;99.90
37594;DHT22;23441;50.856;6.076;2023-01-30T03:56:02;3.70;99.90
37594;DHT22;23441;50.856;6.076;2023-01-30T03:58:27;3.80;99.90
37594;DHT22;23441;50.856;6.076;2023-01-30T04:00:55;3.80;99.90
37594;DHT22;23441;50.856;6.076;2023-01-30T04:03:22;3.90;99.90
37594;DHT22;23441;50.856;6.076;2023-01-30T04:05:48;3.90;99.90
37594;DHT22;23441;50.856;6.076;2023-01-30T04:08:14;4.00;99.90
37594;DHT22;23441;50.856;6.076;2023-01-30T04:10:39;4.00;99.90
37594;DHT22;23441;50.856;6.076;2023-01-30T04:13:05;4.00;99.90
37594;DHT22;23441;50.856;6.076;2023-01-30T04:15:31;4.00;99.90
37594;DHT22;23441;50.856;6.076;2023-01-30T04:17:56;4.00;99.90
37594;DHT22;23441;50.856;6.076;2023-01-30T04:20:22;4.00;99.90
37594;DHT22;23441;50.856;6.076;2023-01-30T04:22:49;4.10;99.90
37594;DHT22;23441;50.856;6.076;2023-01-30T04:25:14;4.10;99.90
37594;DHT22;23441;50.856;6.076;2023-01-30T04:27:40;4.10;99.90
37594;DHT22;23441;50.856;6.076;2023-01-30T04:30:06;4.10;99.90
37594;DHT22;23441;50.856;6.076;2023-01-30T04:32:32;4.10;99.90
37594;DHT22;23441;50.856;6.076;2023-01-30T04:34:58;4.10;99.90
37594;DHT22;23441;50.856;6.076;2023-01-30T04:37:23;4.10;99.90
37594;DHT22;23441;50.856;6.076;2023-01-30T04:39:49;4.10;99.90
37594;DHT22;23441;50.856;6.076;2023-01-30T04:42:15;4.20;99.90
37594;DHT22;23441;50.856;6.076;2023-01-30T04:44:40;4.20;99.90
37594;DHT22;23441;50.856;6.076;2023-01-30T04:47:06;4.20;99.90
37594;DHT22;23441;50.856;6.076;2023-01-30T04:49:31;4.20;99.90
37594;DHT22;23441;50.856;6.076;2023-01-30T04:51:57;4.20;99.90
37594;DHT22;23441;50.856;6.076;2023-01-30T04:54:22;4.20;99.90
37594;DHT22;23441;50.856;6.076;2023-01-30T04:56:48;4.20;99.90
37594;DHT22;23441;50.856;6.076;2023-01-30T04:59:13;4.20;99.90
37594;DHT22;23441;50.856;6.076;2023-01-30T05:01:39;4.20;99.90
37594;DHT22;23441;50.856;6.076;2023-01-30T05:04:05;4.30;99.90
37594;DHT22;23441;50.856;6.076;2023-01-30T05:06:32;4.20;99.90
37594;DHT22;23441;50.856;6.076;2023-01-30T05:08:58;4.20;99.90
37594;DHT22;23441;50.856;6.076;2023-01-30T05:11:25;4.20;99.90
37594;DHT22;23441;50.856;6.076;2023-01-30T05:13:51;4.20;99.90
37594;DHT22;23441;50.856;6.076;2023-01-30T05:16:17;4.20;99.90
37594;DHT22;23441;50.856;6.076;2023-01-30T05:18:43;4.30;99.90
37594;DHT22;23441;50.856;6.076;2023-01-30T05:21:12;4.30;99.90
37594;DHT22;23441;50.856;6.076;2023-01-30T05:23:37;4.30;99.90
37594;DHT22;23441;50.856;6.076;2023-01-30T05:26:03;4.30;99.90
37594;DHT22;23441;50.856;6.076;2023-01-30T05:28:29;4.30;99.90
37594;DHT22;23441;50.856;6.076;2023-01-30T05:31:06;4.40;99.90
37594;DHT22;23441;50.856;6.076;2023-01-30T05:33:32;4.40;99.90
37594;DHT22;23441;50.856;6.076;2023-01-30T05:35:58;4.30;99.90
37594;DHT22;23441;50.856;6.076;2023-01-30T05:38:26;4.30;99.90
37594;DHT22;23441;50.856;6.076;2023-01-30T05:41:06;4.30;99.90
37594;DHT22;23441;50.856;6.076;2023-01-30T05:43:33;4.30;99.90
37594;DHT22;23441;50.856;6.076;2023-01-30T05:46:02;4.40;99.90
37594;DHT22;23441;50.856;6.076;2023-01-30T05:48:28;4.40;99.90
37594;DHT22;23441;50.856;6.076;2023-01-30T05:50:56;4.40;99.90
37594;DHT22;23441;50.856;6.076;2023-01-30T05:53:23;4.50;99.90
37594;DHT22;23441;50.856;6.076;2023-01-30T05:56:00;4.50;99.90
37594;DHT22;23441;50.856;6.076;2023-01-30T05:58:27;4.50;99.90
37594;DHT22;23441;50.856;6.076;2023-01-30T06:00:53;4.50;99.90
37594;DHT22;23441;50.856;6.076;2023-01-30T06:03:19;4.50;99.90
37594;DHT22;23441;50.856;6.076;2023-01-30T06:05:45;4.50;99.90
37594;DHT22;23441;50.856;6.076;2023-01-30T06:08:11;4.50;99.90
37594;DHT22;23441;50.856;6.076;2023-01-30T06:10:36;4.50;99.90
37594;DHT22;23441;50.856;6.076;2023-01-30T06:13:02;4.50;99.90
37594;DHT22;23441;50.856;6.076;2023-01-30T06:15:28;4.60;99.90
37594;DHT22;23441;50.856;6.076;2023-01-30T06:17:54;4.60;99.90
37594;DHT22;23441;50.856;6.076;2023-01-30T06:20:19;4.60;99.90
37594;DHT22;23441;50.856;6.076;2023-01-30T06:22:46;4.60;99.90
37594;DHT22;23441;50.856;6.076;2023-01-30T06:25:12;4.60;99.90
37594;DHT22;23441;50.856;6.076;2023-01-30T06:27:37;4.60;99.90
37594;DHT22;23441;50.856;6.076;2023-01-30T06:30:03;4.70;99.90
37594;DHT22;23441;50.856;6.076;2023-01-30T06:32:29;4.70;99.90
37594;DHT22;23441;50.856;6.076;2023-01-30T06:34:54;4.70;99.90
37594;DHT22;23441;50.856;6.076;2023-01-30T06:37:20;4.80;99.90
37594;DHT22;23441;50.856;6.076;2023-01-30T06:39:45;4.80;99.90
37594;DHT22;23441;50.856;6.076;2023-01-30T06:42:11;4.80;99.90
37594;DHT22;23441;50.856;6.076;2023-01-30T06:44:37;4.90;99.90
37594;DHT22;23441;50.856;6.076;2023-01-30T06:47:02;4.90;99.90
37594;DHT22;23441;50.856;6.076;2023-01-30T06:49:28;5.00;99.90
37594;DHT22;23441;50.856;6.076;2023-01-30T06:51:54;5.00;99.90
37594;DHT22;23441;50.856;6.076;2023-01-30T06:54:19;5.00;99.90
37594;DHT22;23441;50.856;6.076;2023-01-30T06:56:45;5.10;99.90
37594;DHT22;23441;50.856;6.076;2023-01-30T06:59:10;5.10;99.90
37594;DHT22;23441;50.856;6.076;2023-01-30T07:01:36;5.10;99.90
37594;DHT22;23441;50.856;6.076;2023-01-30T07:04:03;5.10;99.90
37594;DHT22;23441;50.856;6.076;2023-01-30T07:06:28;5.10;99.90
37594;DHT22;23441;50.856;6.076;2023-01-30T07:08:54;5.10;99.90
37594;DHT22;23441;50.856;6.076;2023-01-30T07:11:24;5.20;99.90
37594;DHT22;23441;50.856;6.076;2023-01-30T07:13:50;5.20;99.90
37594;DHT22;23441;50.856;6.076;2023-01-30T07:16:16;5.20;99.90
37594;DHT22;23441;50.856;6.076;2023-01-30T07:18:41;5.20;99.90
37594;DHT22;23441;50.856;6.076;2023-01-30T07:21:07;5.20;99.90
37594;DHT22;23441;50.856;6.076;2023-01-30T07:23:32;5.20;99.90
37594;DHT22;23441;50.856;6.076;2023-01-30T07:25:58;5.30;99.90
37594;DHT22;23441;50.856;6.076;2023-01-30T07:28:23;5.30;99.90
37594;DHT22;23441;50.856;6.076;2023-01-30T07:30:49;5.30;99.90
37594;DHT22;23441;50.856;6.076;2023-01-30T07:33:17;5.40;99.90
37594;DHT22;23441;50.856;6.076;2023-01-30T07:35:44;5.30;99.90
37594;DHT22;23441;50.856;6.076;2023-01-30T07:38:09;5.40;99.90
37594;DHT22;23441;50.856;6.076;2023-01-30T07:40:35;5.40;99.90
37594;DHT22;23441;50.856;6.076;2023-01-30T07:43:03;5.50;99.90
37594;DHT22;23441;50.856;6.076;2023-01-30T07:45:33;5.50;99.90
37594;DHT22;23441;50.856;6.076;2023-01-30T07:48:00;5.50;99.90
37594;DHT22;23441;50.856;6.076;2023-01-30T07:50:25;5.50;99.90
37594;DHT22;23441;50.856;6.076;2023-01-30T07:52:51;5.60;99.90
37594;DHT22;23441;50.856;6.076;2023-01-30T07:55:16;5.60;99.90
37594;DHT22;23441;50.856;6.076;2023-01-30T07:57:42;5.60;99.90
37594;DHT22;23441;50.856;6.076;2023-01-30T08:00:08;5.60;99.90
37594;DHT22;23441;50.856;6.076;2023-01-30T08:02:35;5.60;99.90
37594;DHT22;23441;50.856;6.076;2023-01-30T08:05:01;5.60;99.90
37594;DHT22;23441;50.856;6.076;2023-01-30T08:07:27;5.70;99.90
37594;DHT22;23441;50.856;6.076;2023-01-30T08:09:52;5.70;99.90
37594;DHT22;23441;50.856;6.076;2023-01-30T08:12:18;5.70;99.90
37594;DHT22;23441;50.856;6.076;2023-01-30T08:14:43;5.70;99.90
37594;DHT22;23441;50.856;6.076;2023-01-30T08:17:09;5.70;99.90
37594;DHT22;23441;50.856;6.076;2023-01-30T08:19:35;5.80;99.90
37594;DHT22;23441;50.856;6.076;2023-01-30T08:22:00;5.70;99.90
37594;DHT22;23441;50.856;6.076;2023-01-30T08:24:26;5.70;99.90
37594;DHT22;23441;50.856;6.076;2023-01-30T08:26:51;5.70;99.90
37594;DHT22;23441;50.856;6.076;2023-01-30T08:29:17;5.70;99.90
37594;DHT22;23441;50.856;6.076;2023-01-30T08:31:42;5.70;99.90
37594;DHT22;23441;50.856;6.076;2023-01-30T08:34:08;5.70;99.90
37594;DHT22;23441;50.856;6.076;2023-01-30T08:36:34;5.70;99.90
37594;DHT22;23441;50.856;6.076;2023-01-30T08:38:59;5.80;99.90
37594;DHT22;23441;50.856;6.076;2023-01-30T08:41:25;5.70;99.90
37594;DHT22;23441;50.856;6.076;2023-01-30T08:43:52;5.70;99.90
37594;DHT22;23441;50.856;6.076;2023-01-30T08:46:18;5.70;99.90
37594;DHT22;23441;50.856;6.076;2023-01-30T08:48:46;5.70;99.90
37594;DHT22;23441;50.856;6.076;2023-01-30T08:51:12;5.70;99.90
37594;DHT22;23441;50.856;6.076;2023-01-30T08:53:38;5.70;99.90
37594;DHT22;23441;50.856;6.076;2023-01-30T08:56:03;5.70;99.90
37594;DHT22;23441;50.856;6.076;2023-01-30T08:58:29;5.70;99.90
37594;DHT22;23441;50.856;6.076;2023-01-30T09:00:55;5.80;99.90
37594;DHT22;23441;50.856;6.076;2023-01-30T09:03:20;5.80;99.90
37594;DHT22;23441;50.856;6.076;2023-01-30T09:05:53;5.90;99.90
37594;DHT22;23441;50.856;6.076;2023-01-30T09:08:20;5.80;99.90
37594;DHT22;23441;50.856;6.076;2023-01-30T09:10:46;5.80;99.90
37594;DHT22;23441;50.856;6.076;2023-01-30T09:13:11;5.70;99.90
37594;DHT22;23441;50.856;6.076;2023-01-30T09:15:39;5.70;99.90
37594;DHT22;23441;50.856;6.076;2023-01-30T09:18:06;5.80;99.90
37594;DHT22;23441;50.856;6.076;2023-01-30T09:20:31;5.80;99.90
37594;DHT22;23441;50.856;6.076;2023-01-30T09:22:57;5.90;99.90
37594;DHT22;23441;50.856;6.076;2023-01-30T09:25:22;6.00;99.90
37594;DHT22;23441;50.856;6.076;2023-01-30T09:27:49;6.00;99.90
37594;DHT22;23441;50.856;6.076;2023-01-30T09:30:15;6.10;99.90
37594;DHT22;23441;50.856;6.076;2023-01-30T09:32:41;6.10;99.90
37594;DHT22;23441;50.856;6.076;2023-01-30T09:35:07;6.10;99.90
37594;DHT22;23441;50.856;6.076;2023-01-30T09:37:33;6.10;99.90
37594;DHT22;23441;50.856;6.076;2023-01-30T09:39:58;6.20;99.90
37594;DHT22;23441;50.856;6.076;2023-01-30T09:42:49;6.20;99.90
37594;DHT22;23441;50.856;6.076;2023-01-30T09:48:43;6.30;99.90
37594;DHT22;23441;50.856;6.076;2023-01-30T09:51:34;6.40;99.90
37594;DHT22;23441;50.856;6.076;2023-01-30T09:56:32;6.50;99.90
37594;DHT22;23441;50.856;6.076;2023-01-30T09:59:00;6.60;99.90
37594;DHT22;23441;50.856;6.076;2023-01-30T10:01:57;6.70;99.90
37594;DHT22;23441;50.856;6.076;2023-01-30T10:04:44;6.90;99.90
37594;DHT22;23441;50.856;6.076;2023-01-30T10:16:19;7.00;99.90
37594;DHT22;23441;50.856;6.076;2023-01-30T10:21:51;6.90;99.90
37594;DHT22;23441;50.856;6.076;2023-01-30T10:27:19;6.80;99.90
37594;DHT22;23441;50.856;6.076;2023-01-30T10:29:53;7.00;99.90
37594;DHT22;23441;50.856;6.076;2023-01-30T10:32:29;7.00;99.90
37594;DHT22;23441;50.856;6.076;2023-01-30T10:35:03;7.00;99.90
37594;DHT22;23441;50.856;6.076;2023-01-30T10:37:43;7.20;99.90
37594;DHT22;23441;50.856;6.076;2023-01-30T10:43:02;7.20;99.90
37594;DHT22;23441;50.856;6.076;2023-01-30T10:45:40;7.30;99.90
37594;DHT22;23441;50.856;6.076;2023-01-30T10:48:43;7.40;99.90
37594;DHT22;23441;50.856;6.076;2023-01-30T10:59:57;7.30;99.90
37594;DHT22;23441;50.856;6.076;2023-01-30T11:05:15;7.20;99.90
37594;DHT22;23441;50.856;6.076;2023-01-30T11:07:42;7.10;99.90
37594;DHT22;23441;50.856;6.076;2023-01-30T11:10:18;7.00;99.90
37594;DHT22;23441;50.856;6.076;2023-01-30T11:12:44;7.00;99.90
37594;DHT22;23441;50.856;6.076;2023-01-30T11:15:09;7.10;99.90
37594;DHT22;23441;50.856;6.076;2023-01-30T11:17:38;7.00;99.90
37594;DHT22;23441;50.856;6.076;2023-01-30T11:20:26;7.10;99.90
37594;DHT22;23441;50.856;6.076;2023-01-30T11:24:04;7.30;99.90
37594;DHT22;23441;50.856;6.076;2023-01-30T11:26:20;7.40;99.90
37594;DHT22;23441;50.856;6.076;2023-01-30T11:28:46;7.40;99.90
37594;DHT22;23441;50.856;6.076;2023-01-30T11:31:26;7.40;99.90
37594;DHT22;23441;50.856;6.076;2023-01-30T11:34:13;7.40;99.90
37594;DHT22;23441;50.856;6.076;2023-01-30T11:36:39;7.30;99.90
37594;DHT22;23441;50.856;6.076;2023-01-30T11:41:59;7.30;99.90
37594;DHT22;23441;50.856;6.076;2023-01-30T11:46:52;7.10;99.90
37594;DHT22;23441;50.856;6.076;2023-01-30T11:49:20;7.10;99.90
37594;DHT22;23441;50.856;6.076;2023-01-30T11:51:47;7.10;99.90
37594;DHT22;23441;50.856;6.076;2023-01-30T11:54:26;7.10;99.90
37594;DHT22;23441;50.856;6.076;2023-01-30T11:56:56;7.10;99.90
37594;DHT22;23441;50.856;6.076;2023-01-30T11:59:42;7.10;99.90
37594;DHT22;23441;50.856;6.076;2023-01-30T12:02:22;7.00;99.90
37594;DHT22;23441;50.856;6.076;2023-01-30T12:04:51;7.00;99.90
37594;DHT22;23441;50.856;6.076;2023-01-30T12:07:27;7.00;99.90
37594;DHT22;23441;50.856;6.076;2023-01-30T12:09:54;7.00;99.90
37594;DHT22;23441;50.856;6.076;2023-01-30T12:12:46;7.00;99.90
37594;DHT22;23441;50.856;6.076;2023-01-30T12:17:50;6.80;99.90
37594;DHT22;23441;50.856;6.076;2023-01-30T12:23:10;6.80;99.90
37594;DHT22;23441;50.856;6.076;2023-01-30T12:25:47;6.70;99.90
37594;DHT22;23441;50.856;6.076;2023-01-30T12:28:32;6.70;99.90
37594;DHT22;23441;50.856;6.076;2023-01-30T12:33:35;6.70;99.90
37594;DHT22;23441;50.856;6.076;2023-01-30T12:42:18;6.70;99.90
37594;DHT22;23441;50.856;6.076;2023-01-30T12:47:32;6.70;99.90
37594;DHT22;23441;50.856;6.076;2023-01-30T12:50:12;6.70;99.90
37594;DHT22;23441;50.856;6.076;2023-01-30T12:53:04;6.70;99.90
37594;DHT22;23441;50.856;6.076;2023-01-30T12:58:25;6.70;99.90
37594;DHT22;23441;50.856;6.076;2023-01-30T13:01:27;6.70;99.90
37594;DHT22;23441;50.856;6.076;2023-01-30T13:04:23;6.80;99.90
37594;DHT22;23441;50.856;6.076;2023-01-30T13:15:52;6.90;99.90
37594;DHT22;23441;50.856;6.076;2023-01-30T13:19:10;7.00;99.90
37594;DHT22;23441;50.856;6.076;2023-01-30T13:27:27;6.90;99.90
37594;DHT22;23441;50.856;6.076;2023-01-30T13:29:54;6.90;99.90
37594;DHT22;23441;50.856;6.076;2023-01-30T13:34:52;7.00;99.90
37594;DHT22;23441;50.856;6.076;2023-01-30T13:37:20;7.10;99.90
37594;DHT22;23441;50.856;6.076;2023-01-30T13:39:54;7.00;99.90
37594;DHT22;23441;50.856;6.076;2023-01-30T13:45:02;7.10;99.90
37594;DHT22;23441;50.856;6.076;2023-01-30T13:53:36;7.20;99.90
37594;DHT22;23441;50.856;6.076;2023-01-30T13:58:58;7.20;99.90
37594;DHT22;23441;50.856;6.076;2023-01-30T14:12:46;7.00;99.90
37594;DHT22;23441;50.856;6.076;2023-01-30T14:20:29;7.00;99.90
37594;DHT22;23441;50.856;6.076;2023-01-30T14:22:57;7.00;99.90
37594;DHT22;23441;50.856;6.076;2023-01-30T14:30:51;6.90;99.90
37594;DHT22;23441;50.856;6.076;2023-01-30T14:38:36;6.90;99.90
37594;DHT22;23441;50.856;6.076;2023-01-30T14:57:00;6.90;99.90
37594;DHT22;23441;50.856;6.076;2023-01-30T14:59:37;7.00;99.90
37594;DHT22;23441;50.856;6.076;2023-01-30T15:18:27;6.90;99.90
37594;DHT22;23441;50.856;6.076;2023-01-30T15:27:32;6.80;99.90
37594;DHT22;23441;50.856;6.076;2023-01-30T15:32:20;6.70;99.90
37594;DHT22;23441;50.856;6.076;2023-01-30T15:34:49;6.70;99.90
37594;DHT22;23441;50.856;6.076;2023-01-30T15:37:39;6.60;99.90
37594;DHT22;23441;50.856;6.076;2023-01-30T15:50:31;6.50;99.90
37594;DHT22;23441;50.856;6.076;2023-01-30T15:52:56;6.50;99.90
37594;DHT22;23441;50.856;6.076;2023-01-30T15:55:29;6.50;99.90
37594;DHT22;23441;50.856;6.076;2023-01-30T15:57:58;6.50;99.90
37594;DHT22;23441;50.856;6.076;2023-01-30T16:00:32;6.50;99.90
37594;DHT22;23441;50.856;6.076;2023-01-30T16:02:59;6.50;99.90
37594;DHT22;23441;50.856;6.076;2023-01-30T16:05:27;6.50;99.90
37594;DHT22;23441;50.856;6.076;2023-01-30T16:07:54;6.50;99.90
37594;DHT22;23441;50.856;6.076;2023-01-30T16:10:27;6.50;99.90
37594;DHT22;23441;50.856;6.076;2023-01-30T16:12:54;6.40;99.90
37594;DHT22;23441;50.856;6.076;2023-01-30T16:15:40;6.50;99.90
37594;DHT22;23441;50.856;6.076;2023-01-30T16:20:53;6.40;99.90
37594;DHT22;23441;50.856;6.076;2023-01-30T16:23:28;6.50;99.90
37594;DHT22;23441;50.856;6.076;2023-01-30T16:25:54;6.50;99.90
37594;DHT22;23441;50.856;6.076;2023-01-30T16:28:22;6.50;99.90
37594;DHT22;23441;50.856;6.076;2023-01-30T16:30:59;6.50;99.90
37594;DHT22;23441;50.856;6.076;2023-01-30T16:33:25;6.50;99.90
37594;DHT22;23441;50.856;6.076;2023-01-30T16:35:51;6.60;99.90
37594;DHT22;23441;50.856;6.076;2023-01-30T16:39:03;6.50;99.90
37594;DHT22;23441;50.856;6.076;2023-01-30T16:41:37;6.40;99.90
37594;DHT22;23441;50.856;6.076;2023-01-30T16:47:04;6.30;99.90
37594;DHT22;23441;50.856;6.076;2023-01-30T16:54:28;6.30;99.90
37594;DHT22;23441;50.856;6.076;2023-01-30T16:56:57;6.20;99.90
37594;DHT22;23441;50.856;6.076;2023-01-30T16:59:29;6.20;99.90
37594;DHT22;23441;50.856;6.076;2023-01-30T17:01:55;6.20;99.90
37594;DHT22;23441;50.856;6.076;2023-01-30T17:04:28;6.30;99.90
37594;DHT22;23441;50.856;6.076;2023-01-30T17:07:02;6.20;99.90
37594;DHT22;23441;50.856;6.076;2023-01-30T17:09:33;6.10;99.90
37594;DHT22;23441;50.856;6.076;2023-01-30T17:11:59;6.10;99.90
37594;DHT22;23441;50.856;6.076;2023-01-30T17:14:25;6.10;99.90
37594;DHT22;23441;50.856;6.076;2023-01-30T17:17:05;6.20;99.90
37594;DHT22;23441;50.856;6.076;2023-01-30T17:19:32;6.10;99.90
37594;DHT22;23441;50.856;6.076;2023-01-30T17:22:07;6.10;99.90
37594;DHT22;23441;50.856;6.076;2023-01-30T17:24:34;6.10;99.90
37594;DHT22;23441;50.856;6.076;2023-01-30T17:27:01;6.10;99.90
37594;DHT22;23441;50.856;6.076;2023-01-30T17:29:30;6.10;99.90
37594;DHT22;23441;50.856;6.076;2023-01-30T17:31:56;6.00;99.90
37594;DHT22;23441;50.856;6.076;2023-01-30T17:34:23;6.00;99.90
37594;DHT22;23441;50.856;6.076;2023-01-30T17:36:53;6.00;99.90
37594;DHT22;23441;50.856;6.076;2023-01-30T17:39:21;6.00;99.90
37594;DHT22;23441;50.856;6.076;2023-01-30T17:41:47;6.00;99.90
37594;DHT22;23441;50.856;6.076;2023-01-30T17:44:14;6.00;99.90
37594;DHT22;23441;50.856;6.076;2023-01-30T17:46:45;5.90;99.90
37594;DHT22;23441;50.856;6.076;2023-01-30T17:49:17;6.00;99.90
37594;DHT22;23441;50.856;6.076;2023-01-30T17:51:43;6.00;99.90
37594;DHT22;23441;50.856;6.076;2023-01-30T17:54:11;6.00;99.90
37594;DHT22;23441;50.856;6.076;2023-01-30T17:56:39;6.00;99.90
37594;DHT22;23441;50.856;6.076;2023-01-30T17:59:08;6.00;99.90
37594;DHT22;23441;50.856;6.076;2023-01-30T18:01:41;6.00;99.90
37594;DHT22;23441;50.856;6.076;2023-01-30T18:04:07;5.90;99.90
37594;DHT22;23441;50.856;6.076;2023-01-30T18:06:33;5.90;99.90
37594;DHT22;23441;50.856;6.076;2023-01-30T18:08:59;5.90;99.90
37594;DHT22;23441;50.856;6.076;2023-01-30T18:11:25;5.90;99.90
37594;DHT22;23441;50.856;6.076;2023-01-30T18:13:51;5.90;99.90
37594;DHT22;23441;50.856;6.076;2023-01-30T18:18:47;5.90;99.90
37594;DHT22;23441;50.856;6.076;2023-01-30T18:21:17;5.80;99.90
37594;DHT22;23441;50.856;6.076;2023-01-30T18:23:43;5.80;99.90
37594;DHT22;23441;50.856;6.076;2023-01-30T18:26:10;5.70;99.90
37594;DHT22;23441;50.856;6.076;2023-01-30T18:28:36;5.60;99.90
37594;DHT22;23441;50.856;6.076;2023-01-30T18:31:02;5.60;99.90
37594;DHT22;23441;50.856;6.076;2023-01-30T18:33:28;5.50;99.90
37594;DHT22;23441;50.856;6.076;2023-01-30T18:35:53;5.40;99.90
37594;DHT22;23441;50.856;6.076;2023-01-30T18:38:19;5.40;99.90
37594;DHT22;23441;50.856;6.076;2023-01-30T18:40:45;5.40;99.90
37594;DHT22;23441;50.856;6.076;2023-01-30T18:43:10;5.40;99.90
37594;DHT22;23441;50.856;6.076;2023-01-30T18:45:36;5.40;99.90
37594;DHT22;23441;50.856;6.076;2023-01-30T18:48:02;5.50;99.90
37594;DHT22;23441;50.856;6.076;2023-01-30T18:50:27;5.60;99.90
37594;DHT22;23441;50.856;6.076;2023-01-30T18:52:53;5.60;99.90
37594;DHT22;23441;50.856;6.076;2023-01-30T18:55:19;5.60;99.90
37594;DHT22;23441;50.856;6.076;2023-01-30T18:57:45;5.60;99.90
37594;DHT22;23441;50.856;6.076;2023-01-30T19:00:11;5.60;99.90
37594;DHT22;23441;50.856;6.076;2023-01-30T19:02:37;5.50;99.90
37594;DHT22;23441;50.856;6.076;2023-01-30T19:05:02;5.40;99.90
37594;DHT22;23441;50.856;6.076;2023-01-30T19:07:28;5.40;99.90
37594;DHT22;23441;50.856;6.076;2023-01-30T19:09:54;5.40;99.90
37594;DHT22;23441;50.856;6.076;2023-01-30T19:12:20;5.40;99.90
37594;DHT22;23441;50.856;6.076;2023-01-30T19:15:05;5.40;99.90
37594;DHT22;23441;50.856;6.076;2023-01-30T19:17:31;5.40;99.90
37594;DHT22;23441;50.856;6.076;2023-01-30T19:19:56;5.40;99.90
37594;DHT22;23441;50.856;6.076;2023-01-30T19:22:24;5.40;99.90
37594;DHT22;23441;50.856;6.076;2023-01-30T19:24:49;5.40;99.90
37594;DHT22;23441;50.856;6.076;2023-01-30T19:27:15;5.50;99.90